Murray, Indiana
Current Conditions -  °F | °C
As of 6:55 PM on Friday 28 Nov 2014 (Local Time) from KHHG Reporting Station
Clear Clear  
Wind Chill: 23°   Ceiling: Unl
Heat Index: 30°   Visibility: 10mi
Dew Point: 20°   Wind: 7mph
Humidity: 66%   Direction: 170°S
Pressure: 30.09"   Gusts: NA
Location:  40.7175°N, 85.1549°W
Report Text: KHHG 282355Z AUTO 17006KT 10SM CLR M01/M07 A3009 RMK AO2 T10101067 11005 21024
Loading
Personal Weather Stations






























Interactive Weather Map New forecast layout! Learn more

10-Day Weather Forecast

Advertisements
Track Severe Weather on mobile